createdAt,value
2023-06-01T00:00:10.785Z,7.10
2023-06-01T00:02:42.086Z,9.63
2023-06-01T00:05:12.460Z,5.90
2023-06-01T00:07:40.625Z,7.70
2023-06-01T00:10:11.154Z,14.83
2023-06-01T00:12:40.156Z,6.83
2023-06-01T00:15:09.414Z,10.40
2023-06-01T00:17:37.964Z,7.40
2023-06-01T00:20:10.062Z,8.13
2023-06-01T00:22:40.685Z,9.40
2023-06-01T00:25:10.560Z,8.80
2023-06-01T00:27:40.986Z,7.87
2023-06-01T00:30:11.360Z,10.73
2023-06-01T00:32:40.452Z,8.77
2023-06-01T00:35:09.557Z,9.90
2023-06-01T00:37:38.984Z,8.07
2023-06-01T00:40:08.973Z,10.53
2023-06-01T00:42:37.727Z,11.40
2023-06-01T00:45:06.787Z,11.73
2023-06-01T00:47:42.408Z,9.40
2023-06-01T00:50:12.767Z,6.20
2023-06-01T00:52:45.008Z,10.47
2023-06-01T00:55:15.273Z,16.57
2023-06-01T00:57:45.043Z,8.67
2023-06-01T01:00:14.220Z,10.23
2023-06-01T01:02:45.922Z,8.17
2023-06-01T01:05:18.635Z,9.17
2023-06-01T01:08:02.267Z,12.60
2023-06-01T01:10:38.085Z,8.90
2023-06-01T01:13:15.017Z,9.60
2023-06-01T01:15:53.058Z,9.17
2023-06-01T01:18:33.552Z,12.47
2023-06-01T01:21:06.023Z,16.60
2023-06-01T01:24:32.604Z,7.60
2023-06-01T01:27:12.606Z,14.87
2023-06-01T01:29:46.018Z,11.47
2023-06-01T01:32:15.044Z,10.40
2023-06-01T01:34:48.022Z,10.10
2023-06-01T01:37:16.989Z,10.17
2023-06-01T01:39:45.559Z,10.10
2023-06-01T01:42:16.356Z,15.27
2023-06-01T01:44:47.901Z,12.70
2023-06-01T01:47:22.171Z,12.77
2023-06-01T01:49:58.164Z,10.10
2023-06-01T01:52:34.417Z,13.13
2023-06-01T01:55:07.045Z,11.80
2023-06-01T01:57:36.388Z,16.77
2023-06-01T02:00:08.726Z,10.50
2023-06-01T02:02:42.997Z,13.93
2023-06-01T02:05:13.040Z,15.10
2023-06-01T02:07:43.473Z,14.87
2023-06-01T02:10:14.079Z,11.90
2023-06-01T02:12:42.244Z,20.93
2023-06-01T02:15:12.077Z,13.27
2023-06-01T02:17:46.167Z,14.30
2023-06-01T02:20:16.418Z,14.47
2023-06-01T02:22:45.067Z,13.83
2023-06-01T02:25:13.574Z,13.07
2023-06-01T02:27:41.681Z,13.63
2023-06-01T02:30:13.502Z,11.60
2023-06-01T02:32:42.009Z,14.20
2023-06-01T02:35:10.769Z,13.20
2023-06-01T02:37:39.297Z,16.27
2023-06-01T02:40:12.847Z,15.10
2023-06-01T02:42:41.606Z,15.27
2023-06-01T02:45:11.787Z,15.80
2023-06-01T02:47:40.554Z,22.03
2023-06-01T02:50:11.991Z,25.30
2023-06-01T02:52:45.027Z,21.00
2023-06-01T02:55:13.201Z,23.13
2023-06-01T02:58:04.808Z,23.83
2023-06-01T03:00:46.300Z,41.27
2023-06-01T03:03:17.097Z,52.53
2023-06-01T03:05:46.066Z,52.20
2023-06-01T03:08:40.360Z,52.70
2023-06-01T03:11:17.617Z,67.70
2023-06-01T03:13:45.826Z,52.60
2023-06-01T03:16:19.153Z,47.80
2023-06-01T03:19:02.750Z,46.27
2023-06-01T03:21:32.977Z,44.63
2023-06-01T03:24:01.691Z,49.37
2023-06-01T03:26:30.808Z,45.17
2023-06-01T03:29:01.255Z,46.93
2023-06-01T03:31:35.606Z,53.67
2023-06-01T03:34:04.969Z,53.67
2023-06-01T03:36:34.401Z,58.23
2023-06-01T03:39:09.982Z,51.67
2023-06-01T03:41:40.728Z,42.47
2023-06-01T03:44:08.834Z,40.40
2023-06-01T03:46:38.313Z,38.63
2023-06-01T03:49:07.291Z,36.73
2023-06-01T03:51:40.313Z,32.73
2023-06-01T03:54:09.272Z,34.57
2023-06-01T03:56:37.832Z,38.47
2023-06-01T03:59:08.396Z,37.23
2023-06-01T04:01:41.204Z,38.10
2023-06-01T04:04:10.436Z,37.60
2023-06-01T04:06:38.618Z,32.57
2023-06-01T04:09:11.162Z,30.07
2023-06-01T04:11:41.670Z,28.53
2023-06-01T04:14:09.830Z,36.33
2023-06-01T04:16:40.730Z,38.57
2023-06-01T04:19:09.621Z,32.40
2023-06-01T04:21:39.370Z,36.87
2023-06-01T04:24:10.855Z,26.77
2023-06-01T04:26:39.883Z,37.17
2023-06-01T04:29:09.683Z,31.07
2023-06-01T04:31:41.075Z,41.03
2023-06-01T04:34:10.841Z,41.73
2023-06-01T04:36:41.061Z,31.90
2023-06-01T04:39:10.428Z,27.30
2023-06-01T04:41:42.284Z,33.80
2023-06-01T04:44:10.363Z,34.83
2023-06-01T04:46:42.770Z,30.00
2023-06-01T04:49:13.461Z,32.30
2023-06-01T04:51:43.424Z,30.07
2023-06-01T04:54:13.365Z,28.90
2023-06-01T04:56:41.610Z,30.87
2023-06-01T04:59:11.060Z,27.23
2023-06-01T05:01:42.976Z,22.67
2023-06-01T05:04:11.196Z,32.60
2023-06-01T05:06:39.341Z,24.10
2023-06-01T05:09:07.866Z,20.00
2023-06-01T05:11:35.992Z,22.87
2023-06-01T05:14:05.047Z,17.97
2023-06-01T05:16:35.153Z,21.93
2023-06-01T05:19:08.098Z,24.03
2023-06-01T05:21:38.450Z,23.13
2023-06-01T05:24:07.153Z,21.60
2023-06-01T05:26:36.036Z,28.17
2023-06-01T05:29:05.319Z,20.40
2023-06-01T05:31:33.523Z,23.60
2023-06-01T05:34:04.086Z,27.80
2023-06-01T05:36:35.586Z,26.07
2023-06-01T05:39:03.835Z,30.10
2023-06-01T05:41:32.051Z,33.43
2023-06-01T05:44:01.624Z,36.17
2023-06-01T05:46:29.962Z,33.67
2023-06-01T05:48:58.275Z,32.37
2023-06-01T05:51:27.352Z,31.90
2023-06-01T05:54:00.827Z,30.33
2023-06-01T05:56:31.350Z,31.53
2023-06-01T05:59:01.044Z,35.73
2023-06-01T06:01:29.785Z,45.70
2023-06-01T06:03:58.790Z,38.50
2023-06-01T06:06:28.949Z,40.43
2023-06-01T06:08:58.488Z,42.43
2023-06-01T06:11:27.110Z,40.57
2023-06-01T06:13:56.621Z,38.10
2023-06-01T06:16:24.895Z,48.83
2023-06-01T06:18:53.221Z,49.73
2023-06-01T06:21:23.574Z,55.10
2023-06-01T06:23:51.855Z,60.90
2023-06-01T06:26:21.473Z,51.47
2023-06-01T06:28:51.576Z,48.63
2023-06-01T06:31:19.724Z,44.57
2023-06-01T06:33:48.292Z,47.03
2023-06-01T06:36:17.117Z,44.43
2023-06-01T06:38:45.953Z,50.87
2023-06-01T06:41:15.083Z,54.63
2023-06-01T06:43:45.152Z,55.47
2023-06-01T06:46:14.321Z,61.33
2023-06-01T06:48:42.468Z,47.17
2023-06-01T06:51:13.098Z,55.43
2023-06-01T06:53:41.486Z,65.87
2023-06-01T06:56:11.864Z,58.40
2023-06-01T06:58:40.263Z,55.50
2023-06-01T07:01:09.812Z,51.27
2023-06-01T07:04:00.281Z,51.37
2023-06-01T07:06:29.400Z,51.93
2023-06-01T07:08:59.371Z,57.27
2023-06-01T07:11:28.253Z,55.50
2023-06-01T07:13:58.274Z,60.33
2023-06-01T07:16:30.884Z,48.27
2023-06-01T07:19:01.169Z,54.47
2023-06-01T07:21:29.361Z,45.63
2023-06-01T07:23:57.513Z,59.00
2023-06-01T07:26:27.753Z,55.70
2023-06-01T07:28:57.498Z,53.50
2023-06-01T07:31:30.548Z,57.67
2023-06-01T07:33:58.740Z,52.87
2023-06-01T07:36:27.160Z,51.23
2023-06-01T07:38:57.647Z,57.80
2023-06-01T07:41:28.743Z,46.93
2023-06-01T07:43:57.734Z,41.03
2023-06-01T07:46:26.403Z,42.40
2023-06-01T07:48:56.354Z,40.50
2023-06-01T07:51:25.206Z,46.30
2023-06-01T07:53:53.528Z,47.67
2023-06-01T07:56:21.798Z,38.60
2023-06-01T07:58:51.161Z,36.53
2023-06-01T08:01:21.278Z,40.97
2023-06-01T08:03:50.354Z,45.87
2023-06-01T08:06:26.907Z,34.10
2023-06-01T08:08:57.302Z,42.27
2023-06-01T08:11:25.433Z,42.87
2023-06-01T08:13:54.196Z,40.17
2023-06-01T08:16:22.355Z,35.47
2023-06-01T08:18:51.352Z,35.70
2023-06-01T08:21:21.780Z,30.43
2023-06-01T08:23:52.251Z,60.83
2023-06-01T08:26:22.052Z,35.57
2023-06-01T08:28:54.293Z,34.47
2023-06-01T08:31:23.529Z,30.63
2023-06-01T08:33:53.664Z,27.57
2023-06-01T08:36:23.753Z,27.30
2023-06-01T08:38:53.542Z,29.30
2023-06-01T08:41:28.320Z,22.50
2023-06-01T08:44:00.278Z,27.33
2023-06-01T08:46:32.338Z,26.03
2023-06-01T08:49:01.548Z,27.20
2023-06-01T08:51:35.635Z,16.53
2023-06-01T08:54:09.853Z,27.13
2023-06-01T08:56:43.258Z,28.50
2023-06-01T08:59:14.621Z,27.47
2023-06-01T09:01:43.330Z,30.67
2023-06-01T09:04:11.589Z,35.83
2023-06-01T09:06:44.122Z,30.97
2023-06-01T09:09:16.624Z,32.63
2023-06-01T09:11:45.718Z,25.10
2023-06-01T09:14:39.909Z,29.80
2023-06-01T09:17:10.254Z,32.63
2023-06-01T09:19:43.786Z,26.93
2023-06-01T09:22:14.032Z,41.87
2023-06-01T09:24:42.899Z,26.87
2023-06-01T09:27:12.064Z,33.77
2023-06-01T09:29:47.709Z,25.73
2023-06-01T09:32:30.044Z,27.10
2023-06-01T09:35:00.365Z,27.07
2023-06-01T09:37:32.551Z,27.33
2023-06-01T09:40:01.103Z,23.80
2023-06-01T09:42:36.583Z,24.43
2023-06-01T09:45:18.746Z,21.37
2023-06-01T09:47:47.146Z,23.20
2023-06-01T09:50:35.922Z,19.83
2023-06-01T09:53:06.862Z,21.67
2023-06-01T09:55:38.365Z,22.00
2023-06-01T09:58:24.356Z,26.53
2023-06-01T10:00:53.851Z,22.40
2023-06-01T10:03:25.301Z,18.33
2023-06-01T10:05:54.026Z,27.33
2023-06-01T10:08:23.741Z,18.10
2023-06-01T10:10:53.521Z,19.10
2023-06-01T10:13:25.829Z,16.97
2023-06-01T10:15:57.202Z,17.70
2023-06-01T10:18:26.385Z,18.10
2023-06-01T10:20:55.302Z,14.57
2023-06-01T10:23:32.161Z,21.63
2023-06-01T10:26:07.661Z,17.83
2023-06-01T10:28:37.620Z,18.30
2023-06-01T10:31:34.767Z,20.60
2023-06-01T10:34:03.062Z,19.70
2023-06-01T10:37:08.897Z,11.87
2023-06-01T10:39:39.870Z,17.13
2023-06-01T10:42:43.120Z,20.03
2023-06-01T10:45:39.149Z,16.13
2023-06-01T10:48:09.647Z,19.00
2023-06-01T10:50:37.814Z,17.40
2023-06-01T10:53:26.733Z,20.43
2023-06-01T10:56:33.313Z,15.97
2023-06-01T10:59:19.834Z,17.87
2023-06-01T11:01:49.505Z,18.17
2023-06-01T11:04:37.526Z,14.07
2023-06-01T11:07:40.686Z,16.60
2023-06-01T11:10:10.793Z,18.43
2023-06-01T11:13:18.914Z,17.50
2023-06-01T11:16:21.847Z,19.53
2023-06-01T11:18:56.590Z,19.30
2023-06-01T11:21:28.131Z,16.63
2023-06-01T11:24:00.789Z,21.77
2023-06-01T11:26:33.841Z,14.33
2023-06-01T11:29:09.534Z,13.53
2023-06-01T11:31:39.430Z,17.93
2023-06-01T11:34:09.475Z,18.47
2023-06-01T11:36:42.246Z,16.80
2023-06-01T11:39:23.663Z,15.53
2023-06-01T11:42:09.842Z,17.00
2023-06-01T11:44:41.410Z,20.37
2023-06-01T11:47:11.438Z,18.57
2023-06-01T11:49:50.430Z,21.57
2023-06-01T11:52:21.088Z,24.50
2023-06-01T11:54:52.376Z,20.43
2023-06-01T11:57:21.167Z,14.10
2023-06-01T11:59:52.236Z,18.00
2023-06-01T12:02:22.737Z,20.17
2023-06-01T12:05:00.582Z,18.40
2023-06-01T12:07:29.133Z,24.00
2023-06-01T12:09:58.887Z,17.13
2023-06-01T12:12:29.780Z,20.33
2023-06-01T12:15:02.728Z,20.83
2023-06-01T12:17:57.861Z,22.43
2023-06-01T12:20:31.490Z,20.60
2023-06-01T12:23:00.372Z,19.20
2023-06-01T12:25:28.657Z,24.07
2023-06-01T12:28:08.501Z,18.30
2023-06-01T12:30:38.341Z,20.20
2023-06-01T12:33:08.677Z,21.60
2023-06-01T12:35:52.900Z,20.10
2023-06-01T12:38:24.486Z,18.03
2023-06-01T12:41:08.750Z,26.03
2023-06-01T12:43:38.646Z,20.67
2023-06-01T12:46:09.274Z,19.60
2023-06-01T12:48:38.631Z,18.07
2023-06-01T12:51:09.204Z,18.97
2023-06-01T12:53:37.447Z,25.33
2023-06-01T12:56:08.518Z,27.80
2023-06-01T12:58:37.048Z,22.27
2023-06-01T13:01:07.470Z,21.57
2023-06-01T13:03:44.580Z,21.53
2023-06-01T13:06:13.605Z,18.43
2023-06-01T13:08:41.655Z,15.37
2023-06-01T13:13:46.285Z,17.13
2023-06-01T13:16:16.465Z,19.43
2023-06-01T13:18:47.142Z,20.40
2023-06-01T13:21:16.283Z,20.70
2023-06-01T13:23:45.597Z,26.73
2023-06-01T13:26:16.512Z,23.40
2023-06-01T13:28:45.305Z,18.67
2023-06-01T13:31:15.626Z,17.23
2023-06-01T13:33:46.155Z,17.40
2023-06-01T13:36:14.846Z,17.60
2023-06-01T13:38:43.222Z,17.37
2023-06-01T13:41:11.684Z,12.63
2023-06-01T13:43:41.009Z,20.13
2023-06-01T13:46:11.074Z,15.90
2023-06-01T13:48:39.773Z,11.87
2023-06-01T13:51:09.615Z,12.97
2023-06-01T13:53:38.547Z,13.50
2023-06-01T13:58:01.599Z,11.10
2023-06-01T14:00:31.175Z,13.37
2023-06-01T14:02:59.513Z,10.40
2023-06-01T14:05:35.731Z,13.03
2023-06-01T14:08:14.009Z,14.90
2023-06-01T14:10:42.145Z,15.87
2023-06-01T14:13:11.553Z,15.77
2023-06-01T14:15:39.697Z,15.20
2023-06-01T14:18:11.022Z,12.13
2023-06-01T14:20:39.561Z,15.90
2023-06-01T14:23:10.053Z,11.87
2023-06-01T14:25:38.893Z,11.67
2023-06-01T14:28:07.144Z,12.90
2023-06-01T14:30:41.370Z,11.53
2023-06-01T14:33:09.512Z,17.13
2023-06-01T14:35:38.873Z,12.43
2023-06-01T14:38:07.177Z,14.67
2023-06-01T14:40:38.312Z,12.83
2023-06-01T14:43:06.450Z,12.77
2023-06-01T14:45:35.954Z,12.33
2023-06-01T14:48:04.535Z,13.07
2023-06-01T14:50:33.113Z,8.50
2023-06-01T14:53:01.298Z,11.50
2023-06-01T14:55:29.906Z,7.43
2023-06-01T14:57:58.238Z,10.17
2023-06-01T15:00:26.543Z,7.30
2023-06-01T15:02:56.753Z,9.30
2023-06-01T15:05:25.093Z,12.57
2023-06-01T15:07:53.171Z,14.77
2023-06-01T15:10:23.179Z,11.60
2023-06-01T15:12:52.472Z,7.73
2023-06-01T15:15:21.043Z,10.07
2023-06-01T15:17:49.642Z,11.47
2023-06-01T15:20:19.101Z,12.97
2023-06-01T15:22:47.248Z,13.13
2023-06-01T15:25:17.236Z,12.97
2023-06-01T15:27:45.485Z,10.63
2023-06-01T15:30:15.612Z,11.13
2023-06-01T15:32:50.733Z,11.80
2023-06-01T15:35:25.088Z,8.47
2023-06-01T15:37:54.522Z,7.60
2023-06-01T15:40:22.574Z,6.97
2023-06-01T15:42:51.104Z,11.10
2023-06-01T15:45:19.420Z,7.80
2023-06-01T15:47:47.561Z,10.40
2023-06-01T15:50:15.848Z,8.57
2023-06-01T15:52:45.757Z,9.80
2023-06-01T15:55:13.863Z,6.60
2023-06-01T15:57:41.923Z,9.63
2023-06-01T16:00:11.737Z,8.40
2023-06-01T16:02:40.576Z,11.83
2023-06-01T16:05:09.649Z,7.43
2023-06-01T16:07:38.673Z,9.77
2023-06-01T16:10:10.005Z,6.20
2023-06-01T16:12:38.124Z,10.13
2023-06-01T16:15:06.926Z,5.67
2023-06-01T16:17:36.668Z,7.37
2023-06-01T16:20:07.181Z,12.03
2023-06-01T16:22:36.452Z,5.30
2023-06-01T16:25:05.240Z,6.90
2023-06-01T16:27:40.974Z,8.40
2023-06-01T16:30:10.120Z,6.43
2023-06-01T16:32:38.278Z,6.43
2023-06-01T16:35:07.712Z,6.73
2023-06-01T16:37:36.308Z,7.53
2023-06-01T16:40:04.560Z,9.27
2023-06-01T16:42:33.685Z,9.73
2023-06-01T16:45:03.172Z,5.97
2023-06-01T16:47:32.280Z,7.27
2023-06-01T16:50:02.168Z,4.40
2023-06-01T16:52:31.507Z,6.63
2023-06-01T16:54:59.633Z,9.80
2023-06-01T16:57:29.431Z,10.73
2023-06-01T16:59:58.133Z,7.83
2023-06-01T17:02:29.118Z,5.90
2023-06-01T17:04:57.921Z,7.03
2023-06-01T17:07:26.869Z,6.20
2023-06-01T17:09:55.477Z,5.10
2023-06-01T17:12:23.847Z,6.00
2023-06-01T17:14:54.372Z,6.47
2023-06-01T17:17:25.343Z,6.23
2023-06-01T17:19:55.930Z,7.60
2023-06-01T17:22:24.200Z,5.60
2023-06-01T17:24:52.765Z,5.80
2023-06-01T17:27:21.076Z,5.47
2023-06-01T17:29:49.296Z,4.87
2023-06-01T17:32:19.896Z,5.60
2023-06-01T17:34:47.972Z,6.83
2023-06-01T17:37:20.014Z,7.70
2023-06-01T17:39:48.504Z,5.20
2023-06-01T17:42:17.004Z,6.80
2023-06-01T17:44:45.211Z,5.70
2023-06-01T17:47:13.323Z,5.03
2023-06-01T17:49:42.330Z,8.60
2023-06-01T17:52:11.731Z,5.50
2023-06-01T17:54:46.438Z,10.70
2023-06-01T17:57:15.914Z,4.20
2023-06-01T17:59:45.459Z,8.30
2023-06-01T18:02:13.884Z,6.53
2023-06-01T18:04:44.022Z,8.17
2023-06-01T18:07:15.009Z,5.60
2023-06-01T18:09:46.524Z,5.97
2023-06-01T18:12:14.591Z,5.23
2023-06-01T18:14:42.649Z,6.73
2023-06-01T18:17:10.769Z,4.10
2023-06-01T18:19:38.995Z,13.47
2023-06-01T18:22:07.221Z,6.00
2023-06-01T18:24:35.411Z,9.43
2023-06-01T18:27:05.960Z,6.63
2023-06-01T18:29:34.641Z,10.93
2023-06-01T18:32:03.217Z,6.20
2023-06-01T18:34:33.530Z,5.83
2023-06-01T18:37:02.111Z,7.30
2023-06-01T18:39:30.312Z,8.70
2023-06-01T18:41:59.191Z,6.87
2023-06-01T18:44:28.798Z,5.37
2023-06-01T18:46:57.179Z,8.87
2023-06-01T18:49:25.398Z,6.17
2023-06-01T18:51:55.541Z,5.83
2023-06-01T18:54:23.794Z,9.40
2023-06-01T18:56:52.253Z,10.47
2023-06-01T18:59:22.040Z,8.00
2023-06-01T19:01:54.132Z,5.33
2023-06-01T19:04:23.841Z,6.37
2023-06-01T19:06:54.737Z,9.63
2023-06-01T19:09:25.258Z,6.53
2023-06-01T19:11:53.686Z,9.87
2023-06-01T19:14:25.903Z,12.80
2023-06-01T19:16:56.321Z,5.57
2023-06-01T19:19:27.382Z,13.77
2023-06-01T19:21:56.150Z,6.40
2023-06-01T19:24:28.880Z,9.90
2023-06-01T19:27:03.161Z,10.73
2023-06-01T19:29:39.969Z,7.73
2023-06-01T19:32:10.050Z,8.00
2023-06-01T19:34:40.297Z,7.30
2023-06-01T19:37:11.448Z,9.37
2023-06-01T19:39:43.134Z,10.17
2023-06-01T19:42:35.976Z,5.97
2023-06-01T19:45:06.019Z,13.70
2023-06-01T19:47:54.842Z,9.07
2023-06-01T19:50:45.065Z,9.53
2023-06-01T19:53:16.378Z,16.40
2023-06-01T19:55:46.461Z,13.23
2023-06-01T19:58:14.985Z,6.20
2023-06-01T20:00:46.774Z,11.13
2023-06-01T20:03:18.045Z,14.50
2023-06-01T20:05:48.316Z,8.20
2023-06-01T20:08:16.969Z,12.33
2023-06-01T20:10:46.273Z,7.40
2023-06-01T20:13:15.188Z,10.70
2023-06-01T20:15:44.381Z,13.33
2023-06-01T20:18:15.853Z,13.57
2023-06-01T20:20:46.493Z,10.43
2023-06-01T20:23:18.309Z,7.90
2023-06-01T20:25:48.341Z,4.40
2023-06-01T20:28:19.208Z,7.23
2023-06-01T20:31:06.404Z,6.10
2023-06-01T20:33:37.119Z,9.10
2023-06-01T20:36:08.623Z,8.57
2023-06-01T20:38:41.854Z,7.10
2023-06-01T20:41:17.635Z,6.30
2023-06-01T20:43:48.473Z,7.73
2023-06-01T20:46:17.143Z,6.07
2023-06-01T20:48:49.187Z,14.80
2023-06-01T20:51:27.100Z,10.20
2023-06-01T20:53:58.026Z,10.37
2023-06-01T20:56:30.938Z,6.70
2023-06-01T20:59:04.917Z,10.53
2023-06-01T21:01:36.672Z,6.27
2023-06-01T21:04:06.897Z,6.30
2023-06-01T21:06:38.086Z,9.23
2023-06-01T21:09:11.925Z,12.13
2023-06-01T21:11:43.428Z,7.27
2023-06-01T21:14:12.144Z,8.20
2023-06-01T21:16:40.648Z,4.60
2023-06-01T21:19:09.572Z,16.43
2023-06-01T21:21:40.959Z,9.70
2023-06-01T21:24:09.785Z,7.30
2023-06-01T21:26:40.595Z,8.33
2023-06-01T21:29:10.278Z,6.93
2023-06-01T21:31:39.541Z,5.67
2023-06-01T21:34:07.943Z,8.00
2023-06-01T21:36:38.640Z,8.13
2023-06-01T21:39:07.167Z,10.23
2023-06-01T21:41:35.458Z,11.03
2023-06-01T21:44:05.812Z,10.63
2023-06-01T21:46:34.095Z,5.10
2023-06-01T21:49:02.934Z,6.70
2023-06-01T21:51:31.332Z,7.23
2023-06-01T21:54:00.964Z,6.67
2023-06-01T21:56:30.225Z,7.87
2023-06-01T21:58:58.721Z,10.20
2023-06-01T22:01:27.176Z,8.80
2023-06-01T22:03:57.255Z,6.70
2023-06-01T22:06:26.338Z,7.13
2023-06-01T22:08:55.082Z,8.77
2023-06-01T22:11:27.095Z,11.60
2023-06-01T22:13:55.669Z,8.80
2023-06-01T22:16:23.946Z,9.93
2023-06-01T22:18:54.626Z,5.73
2023-06-01T22:21:23.380Z,8.10
2023-06-01T22:23:51.590Z,7.57
2023-06-01T22:26:20.554Z,8.33
2023-06-01T22:28:50.117Z,7.07
2023-06-01T22:31:18.763Z,4.60
2023-06-01T22:33:48.218Z,5.47
2023-06-01T22:36:17.074Z,3.40
2023-06-01T22:38:45.799Z,4.37
2023-06-01T22:41:14.324Z,7.73
2023-06-01T22:43:42.926Z,7.30
2023-06-01T22:46:13.789Z,5.67
2023-06-01T22:48:42.112Z,5.87
2023-06-01T22:51:11.398Z,5.23
2023-06-01T22:53:40.482Z,3.80
2023-06-01T22:56:09.221Z,9.70
2023-06-01T22:58:37.686Z,4.97
2023-06-01T23:01:09.099Z,9.93
2023-06-01T23:03:39.288Z,5.33
2023-06-01T23:06:07.964Z,6.33
2023-06-01T23:08:37.297Z,7.17
2023-06-01T23:11:09.714Z,8.87
2023-06-01T23:13:43.890Z,8.33
2023-06-01T23:16:36.608Z,7.97
2023-06-01T23:19:09.902Z,5.83
2023-06-01T23:21:45.665Z,6.90
2023-06-01T23:24:14.017Z,5.33
2023-06-01T23:26:43.888Z,4.50
2023-06-01T23:29:14.247Z,6.80
2023-06-01T23:31:47.731Z,9.90
2023-06-01T23:34:17.976Z,4.27
2023-06-01T23:36:46.326Z,4.87
2023-06-01T23:39:15.065Z,10.27
2023-06-01T23:41:43.731Z,4.27
2023-06-01T23:44:12.019Z,9.43
2023-06-01T23:46:41.540Z,6.47
2023-06-01T23:49:10.173Z,4.23
2023-06-01T23:51:40.121Z,10.00
2023-06-01T23:54:08.904Z,4.27
2023-06-01T23:56:37.639Z,5.77
2023-06-01T23:59:07.222Z,11.27
